createdAt,value
2022-12-11T00:01:48.037Z,9.32
2022-12-11T00:05:42.457Z,10.20
2022-12-11T00:08:45.565Z,10.13
2022-12-11T00:16:34.762Z,9.57
2022-12-11T00:20:06.538Z,9.40
2022-12-11T00:23:25.475Z,8.73
2022-12-11T00:26:55.805Z,8.40
2022-12-11T00:30:19.096Z,9.63
2022-12-11T00:33:22.935Z,9.68
2022-12-11T00:47:12.118Z,9.33
2022-12-11T00:51:10.749Z,8.95
2022-12-11T00:54:24.944Z,9.48
2022-12-11T00:57:49.841Z,9.95
2022-12-11T01:01:43.045Z,8.80
2022-12-11T01:04:52.274Z,9.63
2022-12-11T01:08:12.450Z,8.73
2022-12-11T01:12:08.677Z,8.98
2022-12-11T01:15:29.610Z,8.80
2022-12-11T01:18:56.899Z,9.37
2022-12-11T01:22:42.572Z,7.27
2022-12-11T01:26:53.796Z,8.27
2022-12-11T01:31:11.901Z,8.65
2022-12-11T01:37:07.495Z,8.60
2022-12-11T01:50:50.417Z,7.07
2022-12-11T01:54:02.186Z,8.23
2022-12-11T01:58:04.776Z,7.68
2022-12-11T02:02:45.763Z,7.20
2022-12-11T02:05:49.794Z,7.50
2022-12-11T02:09:59.099Z,7.10
2022-12-11T02:13:59.292Z,6.13
2022-12-11T02:17:06.996Z,6.93
2022-12-11T02:21:55.679Z,5.97
2022-12-11T02:25:24.588Z,6.23
2022-12-11T02:29:07.400Z,5.20
2022-12-11T02:33:10.438Z,5.72
2022-12-11T02:36:05.162Z,5.95
2022-12-11T02:40:01.341Z,5.83
2022-12-11T02:44:19.969Z,4.07
2022-12-11T02:47:46.439Z,4.80
2022-12-11T02:51:11.733Z,5.22
2022-12-11T02:55:37.615Z,4.90
2022-12-11T02:58:34.446Z,4.30
2022-12-11T03:05:17.796Z,3.88
2022-12-11T03:13:52.166Z,4.40
2022-12-11T03:17:22.507Z,3.57
2022-12-11T03:25:55.029Z,3.53
2022-12-11T03:30:07.674Z,3.22
2022-12-11T03:33:37.540Z,3.22
2022-12-11T03:37:34.893Z,2.80
2022-12-11T03:41:08.765Z,2.87
2022-12-11T03:44:34.114Z,2.58
2022-12-11T03:47:58.139Z,2.20
2022-12-11T04:01:04.404Z,2.00
2022-12-11T04:04:40.465Z,2.58
2022-12-11T04:08:54.067Z,2.30
2022-12-11T04:17:45.786Z,2.10
2022-12-11T04:22:24.699Z,2.83
2022-12-11T04:26:14.167Z,2.10
2022-12-11T04:34:20.006Z,2.58
2022-12-11T04:38:35.404Z,3.10
2022-12-11T04:42:02.577Z,2.93
2022-12-11T04:45:33.216Z,3.03
2022-12-11T04:49:15.388Z,3.67
2022-12-11T04:56:30.817Z,3.23
2022-12-11T04:59:51.137Z,4.37
2022-12-11T05:03:16.644Z,4.28
2022-12-11T05:07:21.101Z,4.90
2022-12-11T05:10:38.610Z,3.97
2022-12-11T05:14:08.406Z,4.53
2022-12-11T05:28:58.134Z,4.38
2022-12-11T05:42:54.341Z,4.20
2022-12-11T06:02:43.979Z,4.00
2022-12-11T06:06:15.285Z,3.40
2022-12-11T06:10:46.867Z,3.35
2022-12-11T06:14:50.039Z,4.60
2022-12-11T06:17:52.719Z,4.50
2022-12-11T06:20:59.484Z,4.53
2022-12-11T06:24:03.823Z,3.70
2022-12-11T06:27:30.922Z,3.08
2022-12-11T06:31:50.936Z,4.75
2022-12-11T06:35:52.149Z,4.00
2022-12-11T06:38:55.983Z,4.63
2022-12-11T06:42:14.985Z,4.33
2022-12-11T06:46:09.436Z,5.22
2022-12-11T06:49:49.583Z,4.88
2022-12-11T06:53:04.064Z,4.40
2022-12-11T06:56:40.892Z,4.60
2022-12-11T07:00:17.510Z,4.63
2022-12-11T07:04:17.662Z,5.35
2022-12-11T07:07:20.600Z,4.50
2022-12-11T07:10:24.600Z,4.32
2022-12-11T07:14:01.919Z,4.50
2022-12-11T07:22:29.289Z,5.03
2022-12-11T07:25:52.795Z,4.30
2022-12-11T07:28:59.564Z,4.50
2022-12-11T07:32:02.621Z,4.73
2022-12-11T07:44:50.983Z,5.03
2022-12-11T07:47:59.287Z,3.80
2022-12-11T07:51:27.321Z,4.03
2022-12-11T07:54:55.118Z,4.60
2022-12-11T07:58:24.711Z,3.42
2022-12-11T08:01:29.502Z,3.83
2022-12-11T08:08:41.718Z,4.23
2022-12-11T08:12:21.703Z,3.30
2022-12-11T08:16:10.793Z,2.92
2022-12-11T08:19:55.309Z,4.13
2022-12-11T08:23:47.245Z,4.00
2022-12-11T08:31:32.684Z,2.97
2022-12-11T08:35:35.546Z,3.80
2022-12-11T08:43:44.514Z,2.97
2022-12-11T08:47:05.432Z,3.43
2022-12-11T09:07:03.942Z,2.53
2022-12-11T09:10:18.672Z,2.60
2022-12-11T09:13:21.395Z,2.13
2022-12-11T09:16:29.004Z,2.35
2022-12-11T09:19:44.949Z,3.17
2022-12-11T09:22:57.625Z,2.15
2022-12-11T09:26:50.349Z,2.60
2022-12-11T09:30:34.383Z,2.27
2022-12-11T09:34:30.806Z,2.50
2022-12-11T09:38:08.446Z,2.85
2022-12-11T09:41:41.305Z,2.40
2022-12-11T09:45:15.799Z,2.33
2022-12-11T09:52:39.740Z,2.08
2022-12-11T10:02:28.166Z,2.67
2022-12-11T10:06:07.487Z,2.60
2022-12-11T10:10:02.530Z,2.37
2022-12-11T10:14:36.082Z,1.95
2022-12-11T10:18:32.865Z,2.53
2022-12-11T10:21:56.929Z,2.30
2022-12-11T10:25:12.415Z,2.93
2022-12-11T10:33:55.449Z,1.92
2022-12-11T10:37:30.462Z,2.42
2022-12-11T10:41:14.191Z,2.38
2022-12-11T10:54:40.206Z,2.45
2022-12-11T10:58:44.154Z,2.70
2022-12-11T11:02:55.649Z,3.08
2022-12-11T11:06:28.471Z,3.00
2022-12-11T11:09:59.725Z,3.17
2022-12-11T11:13:52.583Z,2.90
2022-12-11T11:17:24.738Z,2.60
2022-12-11T11:20:34.205Z,2.58
2022-12-11T11:23:45.488Z,3.20
2022-12-11T11:33:09.275Z,2.60
2022-12-11T11:46:57.038Z,3.37
2022-12-11T11:52:33.294Z,3.10
2022-12-11T11:56:00.537Z,2.38
2022-12-11T12:03:01.435Z,2.90
2022-12-11T12:06:54.126Z,3.17
2022-12-11T12:11:16.027Z,3.30
2022-12-11T12:15:37.455Z,3.53
2022-12-11T12:19:19.575Z,3.88
2022-12-11T12:29:35.628Z,3.00
2022-12-11T12:33:18.014Z,3.30
2022-12-11T12:53:29.547Z,3.57
2022-12-11T12:56:37.906Z,3.73
2022-12-11T13:05:28.336Z,2.88
2022-12-11T13:17:51.813Z,3.63
2022-12-11T13:21:47.977Z,3.58
2022-12-11T13:25:09.926Z,3.28
2022-12-11T13:28:34.186Z,3.40
2022-12-11T13:32:34.647Z,4.07
2022-12-11T13:36:17.772Z,3.80
2022-12-11T13:42:58.512Z,4.63
2022-12-11T13:46:17.911Z,4.13
2022-12-11T13:54:17.222Z,4.00
2022-12-11T14:01:40.989Z,3.75
2022-12-11T14:05:06.798Z,4.28
2022-12-11T14:08:34.144Z,4.83
2022-12-11T14:11:59.177Z,3.67
2022-12-11T14:15:44.027Z,4.63
2022-12-11T14:19:40.992Z,3.67
2022-12-11T14:23:11.393Z,4.25
2022-12-11T14:26:24.452Z,5.30
2022-12-11T14:29:40.270Z,4.67
2022-12-11T14:33:14.799Z,5.20
2022-12-11T14:37:21.525Z,4.68
2022-12-11T14:41:22.218Z,4.90
2022-12-11T14:45:26.988Z,5.23
2022-12-11T14:49:15.845Z,4.53
2022-12-11T14:52:52.746Z,4.68
2022-12-11T14:56:21.788Z,5.15
2022-12-11T15:00:16.713Z,4.45
2022-12-11T15:03:38.411Z,4.63
2022-12-11T15:07:23.654Z,5.43
2022-12-11T15:10:59.461Z,5.50
2022-12-11T15:15:04.621Z,5.63
2022-12-11T15:18:43.087Z,5.00
2022-12-11T15:21:46.242Z,5.97
2022-12-11T15:25:54.188Z,5.67
2022-12-11T15:36:16.911Z,5.90
2022-12-11T15:44:36.819Z,5.70
2022-12-11T15:47:39.670Z,5.47
2022-12-11T15:50:43.302Z,4.88
2022-12-11T15:53:46.274Z,5.47
2022-12-11T15:56:55.783Z,4.88
2022-12-11T16:00:13.962Z,4.53
2022-12-11T16:03:43.327Z,4.90
2022-12-11T16:08:08.028Z,5.45
2022-12-11T16:15:42.758Z,5.32
2022-12-11T16:18:45.587Z,5.77
2022-12-11T16:23:06.651Z,6.57
2022-12-11T16:32:24.245Z,5.07
2022-12-11T16:37:04.269Z,6.30
2022-12-11T16:40:32.486Z,5.60
2022-12-11T16:43:48.586Z,4.83
2022-12-11T16:46:53.788Z,5.50
2022-12-11T16:55:07.671Z,5.95
2022-12-11T17:04:28.687Z,4.10
2022-12-11T17:17:40.071Z,4.65
2022-12-11T17:26:17.599Z,5.10
2022-12-11T17:30:02.827Z,4.43
2022-12-11T17:34:04.083Z,5.40
2022-12-11T17:38:06.905Z,4.72
2022-12-11T17:41:42.560Z,4.47
2022-12-11T17:44:45.734Z,4.47
2022-12-11T17:48:26.687Z,4.93
2022-12-11T17:52:45.175Z,5.40
2022-12-11T17:55:54.529Z,5.20
2022-12-11T17:59:03.592Z,5.70
2022-12-11T18:03:10.496Z,5.63
2022-12-11T18:07:21.625Z,4.70
2022-12-11T18:12:02.714Z,4.65
2022-12-11T18:15:18.532Z,5.30
2022-12-11T18:18:21.204Z,5.63
2022-12-11T18:21:47.458Z,5.60
2022-12-11T18:24:50.229Z,5.13
2022-12-11T18:28:38.880Z,5.10
2022-12-11T18:32:55.081Z,4.95
2022-12-11T18:36:19.883Z,4.97
2022-12-11T18:40:33.873Z,6.33
2022-12-11T18:44:52.663Z,5.88
2022-12-11T18:53:07.114Z,5.30
2022-12-11T18:56:42.227Z,6.17
2022-12-11T19:00:23.378Z,6.20
2022-12-11T19:03:26.099Z,6.38
2022-12-11T19:06:51.915Z,6.28
2022-12-11T19:10:53.468Z,6.53
2022-12-11T19:14:35.782Z,6.10
2022-12-11T19:18:03.136Z,5.77
2022-12-11T19:21:12.585Z,7.07
2022-12-11T19:24:24.556Z,6.38
2022-12-11T19:27:27.348Z,7.18
2022-12-11T19:30:30.167Z,6.93
2022-12-11T19:33:39.585Z,6.30
2022-12-11T19:37:18.624Z,6.53
2022-12-11T19:41:26.592Z,6.78
2022-12-11T19:44:15.842Z,6.80
2022-12-11T19:47:20.387Z,7.60
2022-12-11T19:51:41.624Z,7.03
2022-12-11T19:55:06.030Z,6.47
2022-12-11T19:58:09.509Z,7.97
2022-12-11T20:01:46.033Z,7.25
2022-12-11T20:05:45.980Z,8.77
2022-12-11T20:09:31.864Z,8.03
2022-12-11T20:13:17.077Z,9.15
2022-12-11T20:17:29.535Z,8.35
2022-12-11T20:21:38.775Z,9.60
2022-12-11T20:24:56.964Z,8.57
2022-12-11T20:37:08.084Z,10.35
2022-12-11T20:41:14.307Z,10.65
2022-12-11T20:45:07.910Z,10.20
2022-12-11T20:52:46.531Z,9.43
2022-12-11T20:56:17.968Z,11.77
2022-12-11T20:59:56.698Z,10.07
2022-12-11T21:03:40.424Z,10.57
2022-12-11T21:16:08.868Z,8.52
2022-12-11T21:25:03.337Z,10.20
2022-12-11T21:29:06.500Z,9.50
2022-12-11T21:32:20.380Z,10.57
2022-12-11T21:40:26.576Z,11.95
2022-12-11T21:47:42.904Z,12.13
2022-12-11T21:51:08.679Z,11.90
2022-12-11T21:59:26.970Z,10.15
2022-12-11T22:02:52.504Z,10.90
2022-12-11T22:06:35.465Z,10.20
2022-12-11T22:10:00.686Z,11.38
2022-12-11T22:13:47.869Z,10.27
2022-12-11T22:17:37.156Z,11.85
2022-12-11T22:20:43.247Z,10.93
2022-12-11T22:29:00.608Z,10.77
2022-12-11T22:32:59.991Z,11.57
2022-12-11T22:36:33.739Z,9.93
2022-12-11T22:51:52.406Z,10.38
2022-12-11T22:56:11.392Z,10.43
2022-12-11T23:16:07.040Z,9.27
2022-12-11T23:24:46.985Z,9.95
2022-12-11T23:28:10.119Z,9.00
2022-12-11T23:31:54.579Z,8.17
2022-12-11T23:35:01.027Z,7.75
2022-12-11T23:39:07.945Z,6.28
2022-12-11T23:43:06.543Z,5.43
2022-12-11T23:46:16.567Z,6.17
2022-12-11T23:49:38.367Z,5.70
2022-12-11T23:53:19.297Z,5.25
2022-12-11T23:56:38.215Z,6.68
